createdAt,value
2023-09-17T00:00:10.157Z,19.65
2023-09-17T00:02:36.955Z,19.65
2023-09-17T00:05:03.912Z,19.67
2023-09-17T00:07:30.688Z,19.66
2023-09-17T00:09:57.453Z,19.65
2023-09-17T00:12:24.396Z,19.66
2023-09-17T00:14:51.127Z,19.63
2023-09-17T00:17:17.946Z,19.62
2023-09-17T00:19:44.821Z,19.65
2023-09-17T00:22:11.568Z,19.63
2023-09-17T00:24:38.271Z,19.63
2023-09-17T00:27:05.225Z,19.63
2023-09-17T00:29:31.934Z,19.65
2023-09-17T00:31:58.730Z,19.60
2023-09-17T00:34:25.446Z,19.60
2023-09-17T00:36:52.206Z,19.59
2023-09-17T00:39:18.936Z,19.62
2023-09-17T00:41:45.658Z,19.60
2023-09-17T00:44:12.584Z,19.62
2023-09-17T00:46:39.383Z,19.62
2023-09-17T00:49:06.164Z,19.59
2023-09-17T00:51:32.862Z,19.59
2023-09-17T00:53:59.552Z,19.59
2023-09-17T00:56:26.515Z,19.59
2023-09-17T00:58:53.268Z,19.58
2023-09-17T01:01:20.038Z,19.56
2023-09-17T01:03:46.869Z,19.56
2023-09-17T01:06:13.658Z,19.55
2023-09-17T01:08:40.431Z,19.56
2023-09-17T01:11:07.362Z,19.58
2023-09-17T01:13:34.072Z,19.58
2023-09-17T01:16:00.935Z,19.56
2023-09-17T01:18:27.666Z,19.56
2023-09-17T01:20:54.412Z,19.56
2023-09-17T01:23:21.385Z,19.53
2023-09-17T01:25:48.171Z,19.56
2023-09-17T01:28:15.139Z,19.55
2023-09-17T01:30:41.865Z,19.53
2023-09-17T01:33:08.643Z,19.52
2023-09-17T01:35:35.426Z,19.53
2023-09-17T01:38:02.149Z,19.55
2023-09-17T01:40:28.916Z,19.53
2023-09-17T01:42:55.651Z,19.52
2023-09-17T01:45:22.439Z,19.50
2023-09-17T01:47:49.326Z,19.52
2023-09-17T01:50:16.165Z,19.53
2023-09-17T01:52:42.885Z,19.50
2023-09-17T01:55:09.614Z,19.50
2023-09-17T01:57:36.374Z,19.49
2023-09-17T02:00:03.104Z,19.49
2023-09-17T02:02:31.263Z,19.49
2023-09-17T02:04:58.152Z,19.50
2023-09-17T02:07:25.161Z,19.52
2023-09-17T02:09:51.909Z,19.49
2023-09-17T02:12:18.840Z,19.48
2023-09-17T02:14:45.546Z,19.49
2023-09-17T02:17:13.842Z,19.49
2023-09-17T02:19:40.752Z,19.48
2023-09-17T02:22:07.493Z,19.49
2023-09-17T02:24:34.226Z,19.48
2023-09-17T02:27:00.999Z,19.49
2023-09-17T02:29:27.795Z,19.48
2023-09-17T02:31:54.570Z,19.45
2023-09-17T02:34:21.633Z,19.46
2023-09-17T02:36:48.328Z,19.45
2023-09-17T02:39:15.051Z,19.45
2023-09-17T02:41:41.784Z,19.43
2023-09-17T02:44:08.500Z,19.46
2023-09-17T02:46:35.262Z,19.46
2023-09-17T02:49:02.109Z,19.45
2023-09-17T02:51:28.832Z,19.43
2023-09-17T02:53:55.543Z,19.45
2023-09-17T02:56:22.280Z,19.46
2023-09-17T02:58:49.055Z,19.46
2023-09-17T03:01:15.890Z,19.46
2023-09-17T03:03:42.713Z,19.43
2023-09-17T03:06:09.473Z,19.42
2023-09-17T03:08:36.217Z,19.43
2023-09-17T03:11:02.952Z,19.45
2023-09-17T03:13:29.817Z,19.46
2023-09-17T03:15:56.570Z,19.43
2023-09-17T03:18:23.298Z,19.43
2023-09-17T03:20:50.025Z,19.43
2023-09-17T03:23:16.764Z,19.40
2023-09-17T03:25:43.561Z,19.40
2023-09-17T03:28:10.563Z,19.42
2023-09-17T03:30:37.314Z,19.43
2023-09-17T03:33:05.596Z,19.39
2023-09-17T03:35:32.611Z,19.40
2023-09-17T03:37:59.350Z,19.40
2023-09-17T03:40:26.269Z,19.39
2023-09-17T03:42:53.052Z,19.38
2023-09-17T03:45:19.773Z,19.40
2023-09-17T03:47:47.012Z,19.39
2023-09-17T03:50:13.762Z,19.40
2023-09-17T03:52:40.601Z,19.39
2023-09-17T03:55:07.385Z,19.39
2023-09-17T03:57:34.138Z,19.38
2023-09-17T04:00:00.890Z,19.38
2023-09-17T04:02:27.936Z,19.36
2023-09-17T04:04:54.747Z,19.21
2023-09-17T04:07:21.516Z,19.15
2023-09-17T04:09:48.268Z,19.18
2023-09-17T04:12:14.970Z,19.19
2023-09-17T04:14:41.759Z,19.19
2023-09-17T04:17:11.765Z,19.19
2023-09-17T04:19:38.596Z,19.18
2023-09-17T04:22:05.317Z,19.18
2023-09-17T04:24:32.046Z,19.18
2023-09-17T04:26:58.843Z,19.18
2023-09-17T04:29:25.795Z,19.19
2023-09-17T04:31:52.645Z,19.19
2023-09-17T04:34:19.523Z,19.21
2023-09-17T04:36:46.283Z,19.21
2023-09-17T04:39:13.028Z,19.16
2023-09-17T04:41:39.752Z,19.16
2023-09-17T04:44:06.923Z,19.18
2023-09-17T04:46:33.716Z,19.16
2023-09-17T04:49:00.700Z,19.14
2023-09-17T04:51:27.436Z,19.16
2023-09-17T04:53:54.365Z,19.12
2023-09-17T04:56:21.073Z,19.12
2023-09-17T04:58:47.843Z,19.12
2023-09-17T05:01:14.595Z,19.12
2023-09-17T05:03:41.380Z,19.11
2023-09-17T05:06:08.177Z,19.14
2023-09-17T05:08:34.914Z,19.09
2023-09-17T05:11:01.666Z,19.11
2023-09-17T05:13:28.487Z,19.14
2023-09-17T05:15:55.254Z,19.11
2023-09-17T05:18:22.034Z,19.09
2023-09-17T05:20:49.017Z,19.12
2023-09-17T05:23:15.945Z,19.11
2023-09-17T05:25:42.751Z,19.09
2023-09-17T05:28:09.525Z,19.12
2023-09-17T05:30:36.270Z,19.07
2023-09-17T05:33:03.092Z,19.09
2023-09-17T05:35:30.396Z,19.08
2023-09-17T05:38:15.131Z,19.08
2023-09-17T05:40:42.097Z,19.12
2023-09-17T05:43:08.874Z,19.09
2023-09-17T05:45:35.597Z,19.09
2023-09-17T05:48:02.384Z,19.09
2023-09-17T05:50:29.437Z,19.12
2023-09-17T05:52:56.222Z,19.09
2023-09-17T05:55:23.241Z,19.11
2023-09-17T05:57:50.037Z,19.08
2023-09-17T06:00:16.749Z,19.12
2023-09-17T06:02:43.497Z,19.08
2023-09-17T06:05:10.263Z,19.11
2023-09-17T06:07:37.011Z,19.07
2023-09-17T06:10:03.761Z,19.09
2023-09-17T06:12:31.323Z,19.07
2023-09-17T06:14:58.058Z,19.09
2023-09-17T06:17:25.011Z,19.07
2023-09-17T06:19:52.227Z,19.11
2023-09-17T06:22:19.064Z,19.07
2023-09-17T06:24:45.808Z,19.11
2023-09-17T06:27:12.767Z,19.11
2023-09-17T06:29:39.496Z,19.11
2023-09-17T06:32:06.570Z,19.15
2023-09-17T06:34:33.450Z,19.09
2023-09-17T06:37:00.217Z,19.12
2023-09-17T06:39:26.943Z,19.15
2023-09-17T06:41:53.672Z,19.12
2023-09-17T06:44:20.594Z,19.16
2023-09-17T06:46:47.430Z,19.18
2023-09-17T06:49:14.237Z,19.21
2023-09-17T06:51:40.947Z,19.18
2023-09-17T06:54:07.898Z,19.18
2023-09-17T06:56:34.649Z,19.21
2023-09-17T06:59:01.398Z,19.19
2023-09-17T07:01:28.468Z,19.21
2023-09-17T07:03:55.243Z,19.21
2023-09-17T07:06:21.971Z,19.21
2023-09-17T07:08:48.923Z,19.22
2023-09-17T07:11:15.664Z,19.19
2023-09-17T07:13:42.408Z,19.25
2023-09-17T07:16:09.179Z,19.22
2023-09-17T07:18:35.919Z,19.25
2023-09-17T07:21:02.663Z,19.23
2023-09-17T07:23:29.409Z,19.22
2023-09-17T07:25:56.364Z,19.21
2023-09-17T07:28:23.133Z,19.22
2023-09-17T07:30:49.972Z,19.21
2023-09-17T07:33:16.927Z,19.23
2023-09-17T07:35:43.669Z,19.25
2023-09-17T07:38:10.480Z,19.23
2023-09-17T07:40:37.258Z,19.22
2023-09-17T07:43:04.020Z,19.23
2023-09-17T07:45:30.748Z,19.25
2023-09-17T07:47:57.473Z,19.28
2023-09-17T07:50:24.253Z,19.25
2023-09-17T07:52:51.000Z,19.26
2023-09-17T07:55:17.715Z,19.26
2023-09-17T07:57:44.460Z,19.31
2023-09-17T08:00:11.192Z,19.28
2023-09-17T08:02:38.018Z,19.31
2023-09-17T08:05:04.843Z,19.31
2023-09-17T08:07:31.651Z,19.32
2023-09-17T08:09:59.423Z,19.31
2023-09-17T08:12:26.431Z,19.33
2023-09-17T08:14:53.171Z,19.31
2023-09-17T08:17:19.967Z,19.33
2023-09-17T08:19:46.759Z,19.32
2023-09-17T08:22:13.698Z,19.32
2023-09-17T08:24:40.432Z,19.36
2023-09-17T08:27:07.136Z,19.35
2023-09-17T08:29:33.861Z,19.36
2023-09-17T08:32:00.643Z,19.38
2023-09-17T08:34:27.436Z,19.39
2023-09-17T08:36:54.583Z,19.40
2023-09-17T08:39:21.310Z,19.42
2023-09-17T08:41:48.270Z,19.43
2023-09-17T08:44:14.996Z,19.43
2023-09-17T08:46:41.806Z,19.46
2023-09-17T08:49:08.646Z,19.46
2023-09-17T08:51:35.380Z,19.46
2023-09-17T08:54:02.166Z,19.50
2023-09-17T08:56:29.112Z,19.50
2023-09-17T08:58:55.852Z,19.53
2023-09-17T09:01:22.669Z,19.55
2023-09-17T09:03:49.661Z,19.55
2023-09-17T09:06:16.628Z,19.58
2023-09-17T09:08:43.401Z,19.60
2023-09-17T09:11:10.185Z,19.62
2023-09-17T09:13:37.186Z,19.69
2023-09-17T09:16:03.954Z,19.70
2023-09-17T09:18:30.708Z,19.74
2023-09-17T09:20:57.444Z,19.79
2023-09-17T09:23:24.185Z,19.97
2023-09-17T09:25:50.967Z,19.90
2023-09-17T09:28:17.728Z,19.97
2023-09-17T09:30:44.461Z,19.86
2023-09-17T09:33:11.319Z,19.89
2023-09-17T09:35:38.097Z,19.89
2023-09-17T09:38:04.915Z,19.91
2023-09-17T09:40:31.729Z,19.93
2023-09-17T09:42:58.497Z,19.90
2023-09-17T09:45:25.280Z,19.87
2023-09-17T09:47:52.141Z,19.89
2023-09-17T09:50:18.939Z,19.91
2023-09-17T09:52:45.721Z,19.90
2023-09-17T09:55:12.516Z,19.89
2023-09-17T09:57:41.144Z,19.91
2023-09-17T10:00:08.208Z,19.91
2023-09-17T10:02:34.969Z,19.93
2023-09-17T10:05:01.824Z,19.91
2023-09-17T10:07:30.644Z,19.93
2023-09-17T10:09:57.538Z,19.93
2023-09-17T10:12:24.293Z,19.96
2023-09-17T10:14:51.023Z,19.94
2023-09-17T10:17:17.763Z,19.96
2023-09-17T10:19:44.577Z,19.96
2023-09-17T10:22:11.395Z,19.96
2023-09-17T10:24:38.251Z,19.97
2023-09-17T10:27:05.224Z,19.98
2023-09-17T10:29:32.049Z,20.00
2023-09-17T10:31:58.820Z,19.98
2023-09-17T10:34:25.565Z,20.00
2023-09-17T10:36:52.303Z,20.03
2023-09-17T10:39:19.055Z,20.01
2023-09-17T10:41:45.787Z,20.01
2023-09-17T10:44:12.751Z,20.04
2023-09-17T10:46:39.772Z,20.06
2023-09-17T10:49:06.778Z,20.04
2023-09-17T10:51:33.506Z,20.06
2023-09-17T10:54:00.235Z,20.06
2023-09-17T10:56:26.954Z,20.06
2023-09-17T10:58:53.787Z,20.09
2023-09-17T11:01:20.737Z,20.10
2023-09-17T11:03:47.598Z,20.11
2023-09-17T11:06:17.744Z,20.11
2023-09-17T11:08:44.459Z,20.10
2023-09-17T11:11:11.213Z,20.11
2023-09-17T11:13:37.996Z,20.11
2023-09-17T11:16:04.775Z,20.13
2023-09-17T11:18:33.237Z,20.14
2023-09-17T11:23:48.391Z,20.16
2023-09-17T11:26:15.134Z,20.18
2023-09-17T11:28:41.896Z,20.17
2023-09-17T11:31:09.212Z,20.18
2023-09-17T11:33:35.938Z,20.17
2023-09-17T11:36:02.647Z,20.17
2023-09-17T11:38:29.393Z,20.20
2023-09-17T11:40:56.341Z,20.20
2023-09-17T11:43:23.073Z,20.21
2023-09-17T11:45:49.796Z,20.20
2023-09-17T11:48:16.749Z,20.21
2023-09-17T11:50:43.511Z,20.20
2023-09-17T11:53:10.263Z,20.22
2023-09-17T11:55:37.297Z,20.24
2023-09-17T11:58:04.088Z,20.24
2023-09-17T12:00:30.827Z,20.24
2023-09-17T12:02:57.647Z,20.24
2023-09-17T12:05:24.428Z,20.25
2023-09-17T12:07:55.094Z,20.27
2023-09-17T12:10:23.000Z,20.30
2023-09-17T12:12:49.738Z,20.27
2023-09-17T12:15:16.509Z,20.27
2023-09-17T12:17:45.350Z,20.30
2023-09-17T12:20:12.511Z,20.31
2023-09-17T12:22:39.336Z,20.34
2023-09-17T12:25:06.295Z,20.37
2023-09-17T12:27:33.062Z,20.34
2023-09-17T12:29:59.788Z,20.37
2023-09-17T12:32:26.893Z,20.38
2023-09-17T12:34:54.004Z,20.37
2023-09-17T12:37:20.754Z,20.40
2023-09-17T12:39:47.683Z,20.42
2023-09-17T12:42:14.386Z,20.44
2023-09-17T12:44:41.134Z,20.44
2023-09-17T12:47:07.925Z,20.40
2023-09-17T12:49:34.936Z,20.37
2023-09-17T12:52:01.682Z,20.37
2023-09-17T12:54:28.420Z,20.45
2023-09-17T12:56:55.393Z,20.49
2023-09-17T12:59:22.338Z,20.55
2023-09-17T13:01:49.253Z,20.55
2023-09-17T13:04:16.167Z,20.55
2023-09-17T13:06:42.974Z,20.56
2023-09-17T13:09:09.686Z,20.61
2023-09-17T13:11:36.451Z,20.52
2023-09-17T13:14:03.748Z,20.59
2023-09-17T13:16:30.598Z,20.68
2023-09-17T13:18:57.348Z,20.68
2023-09-17T13:21:24.122Z,20.71
2023-09-17T13:23:51.057Z,20.68
2023-09-17T13:26:17.985Z,20.65
2023-09-17T13:28:44.788Z,20.71
2023-09-17T13:31:11.620Z,20.72
2023-09-17T13:33:38.378Z,20.73
2023-09-17T13:36:05.198Z,20.75
2023-09-17T13:38:31.934Z,20.78
2023-09-17T13:40:58.733Z,20.86
2023-09-17T13:43:25.502Z,21.00
2023-09-17T13:45:52.467Z,21.16
2023-09-17T13:48:19.443Z,21.12
2023-09-17T13:50:46.180Z,21.68
2023-09-17T13:53:12.981Z,21.50
2023-09-17T13:55:39.759Z,21.70
2023-09-17T13:58:06.725Z,21.26
2023-09-17T14:00:33.474Z,21.34
2023-09-17T14:03:00.435Z,21.58
2023-09-17T14:05:27.351Z,21.63
2023-09-17T14:07:54.415Z,21.68
2023-09-17T14:10:21.131Z,21.75
2023-09-17T14:12:48.051Z,21.71
2023-09-17T14:15:14.774Z,21.67
2023-09-17T14:17:41.789Z,21.67
2023-09-17T14:20:08.540Z,21.87
2023-09-17T14:22:35.502Z,21.98
2023-09-17T14:25:02.289Z,22.19
2023-09-17T14:27:29.050Z,22.36
2023-09-17T14:29:55.781Z,22.22
2023-09-17T14:32:22.796Z,22.48
2023-09-17T14:34:49.588Z,22.35
2023-09-17T14:37:16.608Z,22.41
2023-09-17T14:39:43.353Z,22.70
2023-09-17T14:42:28.448Z,22.65
2023-09-17T14:45:13.548Z,22.77
2023-09-17T14:47:58.676Z,22.12
2023-09-17T14:50:25.610Z,22.21
2023-09-17T14:52:52.390Z,22.00
2023-09-17T14:55:19.153Z,21.87
2023-09-17T14:57:45.888Z,21.83
2023-09-17T15:00:12.860Z,21.81
2023-09-17T15:02:39.756Z,21.80
2023-09-17T15:05:06.687Z,21.78
2023-09-17T15:07:33.432Z,21.75
2023-09-17T15:10:00.366Z,21.75
2023-09-17T15:12:27.098Z,21.75
2023-09-17T15:14:54.129Z,21.78
2023-09-17T15:17:20.888Z,21.77
2023-09-17T15:19:47.659Z,21.74
2023-09-17T15:22:14.426Z,21.75
2023-09-17T15:24:41.181Z,21.74
2023-09-17T15:27:07.963Z,21.73
2023-09-17T15:29:34.698Z,21.70
2023-09-17T15:32:01.689Z,21.74
2023-09-17T15:34:28.642Z,21.73
2023-09-17T15:36:55.586Z,21.71
2023-09-17T15:39:22.324Z,21.71
2023-09-17T15:41:49.062Z,21.74
2023-09-17T15:44:16.557Z,21.75
2023-09-17T15:46:43.785Z,21.75
2023-09-17T15:49:10.982Z,21.78
2023-09-17T15:51:37.799Z,21.75
2023-09-17T15:54:04.556Z,21.77
2023-09-17T15:56:31.277Z,21.77
2023-09-17T15:58:58.029Z,21.78
2023-09-17T16:01:24.839Z,21.77
2023-09-17T16:03:51.662Z,21.74
2023-09-17T16:06:18.514Z,21.70
2023-09-17T16:08:45.245Z,21.74
2023-09-17T16:11:12.256Z,21.71
2023-09-17T16:13:39.139Z,21.73
2023-09-17T16:16:05.951Z,21.73
2023-09-17T16:18:32.701Z,21.71
2023-09-17T16:20:59.672Z,21.68
2023-09-17T16:23:26.612Z,21.70
2023-09-17T16:25:53.381Z,21.68
2023-09-17T16:28:20.356Z,21.67
2023-09-17T16:30:47.176Z,21.68
2023-09-17T16:33:13.946Z,21.67
2023-09-17T16:35:40.962Z,21.67
2023-09-17T16:38:08.400Z,21.65
2023-09-17T16:40:35.117Z,21.68
2023-09-17T16:43:08.914Z,21.64
2023-09-17T16:45:37.113Z,21.67
2023-09-17T16:48:03.852Z,21.63
2023-09-17T16:50:30.837Z,21.63
2023-09-17T16:52:57.594Z,21.58
2023-09-17T16:55:24.571Z,21.54
2023-09-17T16:57:51.313Z,21.50
2023-09-17T17:00:18.268Z,21.50
2023-09-17T17:02:45.120Z,21.50
2023-09-17T17:05:12.236Z,21.44
2023-09-17T17:07:39.046Z,21.44
2023-09-17T17:10:05.792Z,21.40
2023-09-17T17:12:32.513Z,21.42
2023-09-17T17:14:59.255Z,21.39
2023-09-17T17:17:26.260Z,21.39
2023-09-17T17:19:53.133Z,21.39
2023-09-17T17:22:20.116Z,21.34
2023-09-17T17:24:46.885Z,21.33
2023-09-17T17:27:13.855Z,21.32
2023-09-17T17:29:40.836Z,21.30
2023-09-17T17:32:07.599Z,21.29
2023-09-17T17:34:34.462Z,21.27
2023-09-17T17:37:01.399Z,21.27
2023-09-17T17:39:28.139Z,21.26
2023-09-17T17:41:54.865Z,21.24
2023-09-17T17:44:22.519Z,21.22
2023-09-17T17:46:49.354Z,21.24
2023-09-17T17:49:16.339Z,21.20
2023-09-17T17:51:43.078Z,21.20
2023-09-17T17:54:09.809Z,21.18
2023-09-17T17:56:36.549Z,21.18
2023-09-17T17:59:03.410Z,21.13
2023-09-17T18:01:30.332Z,21.13
2023-09-17T18:03:57.892Z,21.13
2023-09-17T18:06:24.920Z,21.12
2023-09-17T18:08:51.640Z,21.13
2023-09-17T18:11:18.351Z,21.13
2023-09-17T18:13:45.113Z,21.10
2023-09-17T18:16:11.913Z,21.09
2023-09-17T18:18:38.642Z,21.07
2023-09-17T18:21:05.394Z,21.06
2023-09-17T18:23:32.364Z,21.04
2023-09-17T18:25:59.094Z,21.06
2023-09-17T18:28:25.844Z,21.04
2023-09-17T18:30:52.625Z,21.03
2023-09-17T18:33:19.418Z,21.02
2023-09-17T18:35:46.145Z,21.02
2023-09-17T18:38:12.922Z,21.02
2023-09-17T18:40:39.677Z,20.99
2023-09-17T18:43:06.440Z,20.99
2023-09-17T18:45:33.189Z,20.96
2023-09-17T18:47:59.948Z,20.95
2023-09-17T18:50:26.733Z,20.95
2023-09-17T18:52:53.602Z,20.95
2023-09-17T18:55:20.325Z,20.93
2023-09-17T18:57:47.030Z,20.93
2023-09-17T19:00:13.976Z,20.91
2023-09-17T19:02:40.977Z,20.93
2023-09-17T19:05:08.086Z,20.91
2023-09-17T19:07:34.795Z,20.89
2023-09-17T19:10:01.764Z,20.86
2023-09-17T19:12:28.493Z,20.89
2023-09-17T19:14:55.233Z,20.88
2023-09-17T19:17:22.208Z,20.85
2023-09-17T19:19:49.224Z,20.83
2023-09-17T19:22:15.978Z,20.85
2023-09-17T19:24:42.720Z,20.86
2023-09-17T19:27:09.733Z,20.83
2023-09-17T19:29:36.455Z,20.82
2023-09-17T19:32:03.493Z,20.83
2023-09-17T19:34:30.277Z,20.81
2023-09-17T19:36:57.018Z,20.81
2023-09-17T19:39:23.726Z,20.82
2023-09-17T19:41:50.674Z,20.78
2023-09-17T19:44:17.436Z,20.78
2023-09-17T19:46:44.218Z,20.78
2023-09-17T19:49:10.969Z,20.76
2023-09-17T19:51:37.737Z,20.75
2023-09-17T19:54:04.489Z,20.76
2023-09-17T19:56:31.464Z,20.75
2023-09-17T19:58:58.433Z,20.75
2023-09-17T20:01:26.090Z,20.75
2023-09-17T20:03:52.886Z,20.69
2023-09-17T20:06:19.630Z,20.72
2023-09-17T20:08:46.379Z,20.71
2023-09-17T20:11:13.206Z,20.69
2023-09-17T20:13:40.188Z,20.69
2023-09-17T20:16:06.971Z,20.69
2023-09-17T20:18:33.941Z,20.69
2023-09-17T20:21:00.649Z,20.68
2023-09-17T20:23:27.639Z,20.65
2023-09-17T20:25:54.430Z,20.68
2023-09-17T20:28:21.406Z,20.67
2023-09-17T20:30:48.145Z,20.67
2023-09-17T20:33:15.132Z,20.65
2023-09-17T20:35:41.918Z,20.64
2023-09-17T20:38:08.906Z,20.61
2023-09-17T20:40:35.632Z,20.59
2023-09-17T20:43:02.362Z,20.61
2023-09-17T20:45:29.149Z,20.61
2023-09-17T20:47:55.979Z,20.61
2023-09-17T20:50:22.805Z,20.61
2023-09-17T20:52:49.604Z,20.61
2023-09-17T20:55:16.372Z,20.56
2023-09-17T20:57:43.102Z,20.59
2023-09-17T21:00:09.829Z,20.56
2023-09-17T21:02:36.710Z,20.58
2023-09-17T21:05:03.845Z,20.55
2023-09-17T21:07:30.659Z,20.58
2023-09-17T21:09:57.456Z,20.56
2023-09-17T21:12:24.451Z,20.55
2023-09-17T21:14:51.402Z,20.55
2023-09-17T21:17:18.165Z,20.54
2023-09-17T21:19:45.179Z,20.51
2023-09-17T21:22:11.953Z,20.55
2023-09-17T21:24:38.711Z,20.51
2023-09-17T21:27:05.509Z,20.51
2023-09-17T21:29:32.279Z,20.49
2023-09-17T21:31:59.287Z,20.48
2023-09-17T21:34:26.020Z,20.48
2023-09-17T21:36:52.725Z,20.51
2023-09-17T21:39:19.469Z,20.49
2023-09-17T21:41:46.198Z,20.47
2023-09-17T21:44:12.984Z,20.49
2023-09-17T21:46:39.845Z,20.44
2023-09-17T21:49:09.576Z,20.45
2023-09-17T21:51:36.293Z,20.47
2023-09-17T21:54:03.253Z,20.44
2023-09-17T21:56:29.989Z,20.45
2023-09-17T21:58:57.428Z,20.44
2023-09-17T22:01:24.196Z,20.44
2023-09-17T22:03:50.940Z,20.45
2023-09-17T22:06:17.706Z,20.42
2023-09-17T22:08:44.456Z,20.42
2023-09-17T22:11:11.422Z,20.40
2023-09-17T22:13:38.149Z,20.41
2023-09-17T22:16:05.231Z,20.42
2023-09-17T22:18:31.986Z,20.41
2023-09-17T22:20:58.736Z,20.38
2023-09-17T22:23:25.525Z,20.40
2023-09-17T22:25:52.367Z,20.40
2023-09-17T22:28:19.131Z,20.40
2023-09-17T22:30:45.894Z,20.38
2023-09-17T22:33:12.633Z,20.37
2023-09-17T22:35:39.598Z,20.37
2023-09-17T22:38:06.571Z,20.35
2023-09-17T22:40:33.303Z,20.38
2023-09-17T22:43:00.251Z,20.37
2023-09-17T22:45:26.979Z,20.37
2023-09-17T22:47:53.744Z,20.35
2023-09-17T22:50:20.507Z,20.34
2023-09-17T22:52:47.256Z,20.32
2023-09-17T22:55:13.994Z,20.35
2023-09-17T22:57:40.989Z,20.34
2023-09-17T23:00:07.729Z,20.32
2023-09-17T23:02:34.819Z,20.32
2023-09-17T23:05:01.908Z,20.30
2023-09-17T23:07:28.681Z,20.30
2023-09-17T23:09:55.424Z,20.31
2023-09-17T23:12:22.382Z,20.30
2023-09-17T23:14:49.089Z,20.31
2023-09-17T23:17:16.085Z,20.30
2023-09-17T23:19:42.849Z,20.30
2023-09-17T23:22:09.612Z,20.28
2023-09-17T23:24:36.563Z,20.31
2023-09-17T23:27:03.533Z,20.28
2023-09-17T23:29:30.300Z,20.27
2023-09-17T23:31:57.353Z,20.27
2023-09-17T23:34:24.174Z,20.27
2023-09-17T23:36:51.142Z,20.27
2023-09-17T23:39:17.897Z,20.25
2023-09-17T23:41:44.626Z,20.27
2023-09-17T23:44:11.445Z,20.25
2023-09-17T23:46:38.161Z,20.24
2023-09-17T23:49:04.908Z,20.24
2023-09-17T23:51:31.839Z,20.24
2023-09-17T23:53:58.558Z,20.22
2023-09-17T23:56:25.525Z,20.24
2023-09-17T23:58:52.671Z,20.24
